Time;durP1;ratioP1;P1;durP2;ratioP2;P2;SDS_P1;SDS_P2;PMS_P1;PMS_P2;Temp;Humidity;BMP_temperature;BMP_pressure;BME280_temperature;BME280_humidity;BME280_pressure;Samples;Min_cycle;Max_cycle;Signal;HPM_P1;HPM_P2
2022/12/23 00:01:27;;;;;;;1.90;0.80;;;;;;;-3.67;36.93;101722.88;5024275;28;20088;-74
2022/12/23 00:03:59;;;;;;;1.88;0.70;;;;;;;-3.65;37.16;101715.47;5023139;28;20144;-73
2022/12/23 00:06:28;;;;;;;1.38;0.70;;;;;;;-3.67;37.28;101727.94;5024011;28;20499;-73
2022/12/23 00:08:58;;;;;;;1.73;0.82;;;;;;;-3.76;37.24;101706.78;5023815;28;20053;-73
2022/12/23 00:11:29;;;;;;;3.17;0.90;;;;;;;-3.73;37.43;101711.25;5021375;28;20054;-74
2022/12/23 00:16:43;;;;;;;13.68;1.02;;;;;;;-3.79;38.19;101730.13;5025356;28;20126;-71
2022/12/23 00:19:12;;;;;;;2.92;0.93;;;;;;;-3.80;38.69;101720.75;5023011;28;20103;-75
2022/12/23 00:21:40;;;;;;;1.42;0.55;;;;;;;-3.78;40.44;101713.31;5023857;28;20055;-75
2022/12/23 00:24:09;;;;;;;2.35;0.60;;;;;;;-3.79;38.62;101701.41;5019287;28;20056;-75
2022/12/23 00:26:40;;;;;;;1.00;0.70;;;;;;;-3.78;37.76;101688.00;5020472;28;20045;-75
2022/12/23 00:29:08;;;;;;;2.08;1.23;;;;;;;-3.80;38.84;101679.41;5023288;28;20533;-76
2022/12/23 00:31:37;;;;;;;0.50;0.32;;;;;;;-3.88;39.49;101671.03;5024794;28;20703;-78
2022/12/23 00:34:05;;;;;;;0.90;0.40;;;;;;;-3.91;39.63;101674.91;5016402;28;20061;-75
2022/12/23 00:36:36;;;;;;;1.90;0.30;;;;;;;-3.92;40.33;101666.38;5020972;28;20506;-74
2022/12/23 00:44:37;;;;;;;6.20;1.25;;;;;;;-4.03;41.27;101666.97;5024971;28;20187;-71
2022/12/23 00:47:06;;;;;;;0.70;0.43;;;;;;;-3.98;42.50;101669.97;5025391;28;20069;-74
2022/12/23 00:49:42;;;;;;;2.05;0.57;;;;;;;-3.95;41.41;101670.25;5022880;28;20711;-73
2022/12/23 00:52:14;;;;;;;1.20;0.63;;;;;;;-3.96;40.08;101671.91;5023359;28;20084;-72
2022/12/23 00:54:43;;;;;;;1.73;0.77;;;;;;;-4.00;41.89;101669.78;5023764;28;20045;-74
2022/12/23 00:57:20;;;;;;;0.95;0.50;;;;;;;-3.97;43.07;101659.09;5026690;28;20415;-74
2022/12/23 00:59:48;;;;;;;1.25;0.90;;;;;;;-4.00;43.13;101655.50;5026343;28;20191;-72
2022/12/23 01:07:48;;;;;;;1.52;0.90;;;;;;;-4.04;42.68;101662.63;5025543;28;20468;-73
2022/12/23 01:10:17;;;;;;;0.73;0.55;;;;;;;-4.04;43.23;101647.47;5028043;28;20055;-81
2022/12/23 01:12:47;;;;;;;0.40;0.40;;;;;;;-4.07;42.55;101650.56;5027161;28;20054;-77
2022/12/23 01:15:16;;;;;;;0.63;0.40;;;;;;;-4.07;42.80;101643.00;5027680;28;20041;-74
2022/12/23 01:17:44;;;;;;;1.42;0.70;;;;;;;-4.05;44.67;101646.56;5027499;28;20656;-74
2022/12/23 01:20:14;;;;;;;2.17;0.80;;;;;;;-4.05;43.42;101636.47;5023837;28;20053;-78
2022/12/23 01:22:44;;;;;;;3.72;0.90;;;;;;;-4.03;44.03;101646.75;5026849;28;20160;-77
2022/12/23 01:25:13;;;;;;;0.95;0.30;;;;;;;-4.05;45.21;101646.56;5021779;28;20053;-76
2022/12/23 01:27:41;;;;;;;1.55;0.70;;;;;;;-4.05;44.26;101628.88;5026013;28;20523;-74
2022/12/23 01:30:12;;;;;;;1.23;0.40;;;;;;;-4.13;46.39;101617.09;5026511;28;20053;-76
2022/12/23 01:32:41;;;;;;;4.65;0.68;;;;;;;-4.11;45.06;101642.53;5025956;28;20057;-74
2022/12/23 01:35:10;;;;;;;2.95;0.82;;;;;;;-4.10;45.34;101632.59;5025666;28;20057;-73
2022/12/23 01:37:39;;;;;;;0.95;0.43;;;;;;;-4.15;45.73;101630.31;5025746;28;20041;-75
2022/12/23 01:40:08;;;;;;;1.25;0.65;;;;;;;-4.12;46.19;101630.59;5029316;28;20487;-77
2022/12/23 01:45:29;;;;;;;4.95;0.57;;;;;;;-4.22;46.30;101626.25;5024719;28;20156;-77
2022/12/23 01:47:59;;;;;;;1.08;0.77;;;;;;;-4.20;45.77;101634.88;5028211;28;20085;-80
2022/12/23 01:50:32;;;;;;;3.00;0.90;;;;;;;-4.19;47.31;101624.06;5028821;28;20384;-76
2022/12/23 01:53:07;;;;;;;2.53;0.75;;;;;;;-4.17;46.93;101631.78;5028751;28;20427;-76
2022/12/23 01:55:39;;;;;;;0.55;0.55;;;;;;;-4.23;48.88;101611.84;5029339;28;20054;-74
2022/12/23 01:58:10;;;;;;;;;;;;;;;-4.21;47.56;101607.84;5025546;28;20399;-76
2022/12/23 02:03:43;;;;;;;8.82;0.60;;;;;;;-4.28;48.97;101587.75;5024623;28;20055;-77
2022/12/23 02:09:19;;;;;;;2.10;0.88;;;;;;;-4.27;49.42;101602.16;5027992;28;20056;-76
2022/12/23 02:12:30;;;;;;;0.77;0.50;;;;;;;-4.32;48.69;101603.31;5025009;28;20419;-74
2022/12/23 02:18:27;;;;;;;0.85;0.50;;;;;;;-4.24;48.80;101587.28;5023636;28;20056;-74
2022/12/23 02:21:27;;;;;;;0.80;0.63;;;;;;;-4.25;49.55;101591.47;5024442;28;20107;-77
2022/12/23 02:24:23;;;;;;;3.30;0.85;;;;;;;-4.25;48.70;101575.41;5022186;28;20537;-75
2022/12/23 02:27:11;;;;;;;0.70;0.70;;;;;;;-4.25;50.39;101580.47;5026299;28;20491;-74
2022/12/23 02:30:08;;;;;;;0.52;0.47;;;;;;;-4.27;50.12;101569.31;5022568;28;20427;-74
2022/12/23 02:32:50;;;;;;;0.90;0.63;;;;;;;-4.33;51.34;101566.16;5023791;28;20049;-74
2022/12/23 02:35:28;;;;;;;1.08;0.73;;;;;;;-4.21;50.65;101578.41;5021537;28;20054;-75
2022/12/23 02:38:04;;;;;;;4.13;0.80;;;;;;;-4.19;50.13;101554.91;5022276;28;20625;-75
2022/12/23 02:40:41;;;;;;;0.40;0.40;;;;;;;-4.23;51.69;101543.63;5026188;28;20160;-75
2022/12/23 02:46:07;;;;;;;3.80;0.98;;;;;;;-4.19;51.13;101545.72;5021944;28;20134;-75
2022/12/23 02:48:47;;;;;;;3.70;0.57;;;;;;;-4.16;52.86;101540.97;5024735;28;20081;-77
2022/12/23 02:51:22;;;;;;;0.93;0.50;;;;;;;-4.14;52.20;101534.44;5027064;28;20330;-77
2022/12/23 02:53:57;;;;;;;0.85;0.63;;;;;;;-4.25;51.49;101519.81;5021229;28;20056;-76
2022/12/23 02:56:29;;;;;;;1.90;0.45;;;;;;;-4.18;51.72;101532.34;5029121;28;20049;-77
2022/12/23 02:59:07;;;;;;;0.75;0.70;;;;;;;-4.22;53.13;101526.06;5027036;28;20080;-74
2022/12/23 03:01:38;;;;;;;1.02;0.57;;;;;;;-4.27;52.66;101537.34;5029488;28;20157;-76
2022/12/23 03:04:13;;;;;;;1.55;0.52;;;;;;;-4.27;52.60;101549.09;5024608;28;20542;-77
2022/12/23 03:06:45;;;;;;;0.65;0.45;;;;;;;-4.32;52.57;101548.63;5024134;28;20055;-77
2022/12/23 03:09:25;;;;;;;1.38;0.43;;;;;;;-4.31;54.30;101557.09;5027244;28;20430;-75
2022/12/23 03:12:05;;;;;;;1.60;0.82;;;;;;;-4.35;54.42;101557.53;5023388;28;20057;-77
2022/12/23 03:14:58;;;;;;;2.20;0.95;;;;;;;-4.37;54.94;101559.03;5019570;28;20049;-75
2022/12/23 03:17:49;;;;;;;0.52;0.32;;;;;;;-4.40;53.71;101553.63;5020486;28;20069;-76
2022/12/23 03:20:28;;;;;;;3.00;0.77;;;;;;;-4.37;54.36;101559.91;5017985;28;20057;-78
2022/12/23 03:23:04;;;;;;;2.00;1.02;;;;;;;-4.32;53.12;101550.28;5018857;28;20514;-77
2022/12/23 03:25:39;;;;;;;2.20;0.77;;;;;;;-4.32;54.31;101537.63;5015611;28;20730;-74
2022/12/23 03:28:13;;;;;;;2.70;1.10;;;;;;;-4.38;51.83;101535.38;5018455;28;20137;-76
2022/12/23 03:30:47;;;;;;;4.25;0.95;;;;;;;-4.39;53.76;101526.03;5018426;28;20384;-74
2022/12/23 03:33:20;;;;;;;15.20;1.40;;;;;;;-4.37;53.65;101523.66;5025597;28;20637;-73
2022/12/23 03:35:57;;;;;;;2.30;0.40;;;;;;;-4.35;53.47;101528.13;5026987;28;20049;-74
2022/12/23 03:38:28;;;;;;;11.60;0.85;;;;;;;-4.36;53.61;101522.91;5019512;28;20443;-75
2022/12/23 03:41:01;;;;;;;1.05;0.63;;;;;;;-4.35;53.46;101527.19;5026931;28;20068;-75
2022/12/23 03:43:36;;;;;;;0.40;0.40;;;;;;;-4.32;52.90;101522.47;5027621;28;20057;-81
2022/12/23 03:46:11;;;;;;;1.60;0.70;;;;;;;-4.32;53.09;101522.47;5022900;28;20077;-77
2022/12/23 03:48:44;;;;;;;1.55;1.05;;;;;;;-4.33;54.08;101533.31;5013304;28;20069;-76
2022/12/23 03:51:19;;;;;;;3.28;1.15;;;;;;;-4.33;53.89;101515.63;5023274;28;20041;-75
2022/12/23 03:53:52;;;;;;;1.00;0.60;;;;;;;-4.35;53.97;101522.16;5024916;28;20045;-73
2022/12/23 03:56:25;;;;;;;0.80;0.60;;;;;;;-4.37;53.66;101524.53;5023411;28;20050;-74
2022/12/23 03:58:58;;;;;;;2.35;1.00;;;;;;;-4.37;54.35;101542.22;5018132;28;20045;-74
2022/12/23 04:01:44;;;;;;;2.08;0.88;;;;;;;-4.37;54.45;101542.22;5018860;28;20131;-72
2022/12/23 04:04:27;;;;;;;1.45;0.75;;;;;;;-4.40;55.08;101548.59;5006772;28;20049;-74
2022/12/23 04:07:05;;;;;;;1.90;0.77;;;;;;;-4.37;54.82;101551.44;5006199;28;20052;-73
2022/12/23 04:09:35;;;;;;;4.03;0.85;;;;;;;-4.35;53.79;101553.38;5007865;28;20108;-72
2022/12/23 04:12:04;;;;;;;1.83;0.70;;;;;;;-4.30;53.83;101557.25;5002667;28;20057;-75
2022/12/23 04:14:36;;;;;;;2.83;0.73;;;;;;;-4.29;58.87;101558.16;5007342;28;20396;-77
2022/12/23 04:17:05;;;;;;;4.13;1.35;;;;;;;-4.27;56.26;101555.03;5001620;28;20559;-78
2022/12/23 04:19:33;;;;;;;1.35;0.88;;;;;;;-4.28;57.42;101544.78;5006706;28;20373;-73
2022/12/23 04:22:04;;;;;;;4.38;1.05;;;;;;;-4.29;56.49;101553.09;5000417;28;20053;-72
2022/12/23 04:24:32;;;;;;;1.02;0.52;;;;;;;-4.32;56.63;101550.28;5002228;28;20480;-74
2022/12/23 04:27:02;;;;;;;13.63;2.28;;;;;;;-4.32;56.53;101537.63;5002674;28;20104;-72
2022/12/23 04:29:30;;;;;;;1.50;0.57;;;;;;;-4.33;56.92;101535.84;5002878;28;20149;-71
2022/12/23 04:31:59;;;;;;;1.40;0.60;;;;;;;-4.35;56.97;101537.31;5005808;28;20873;-71
2022/12/23 04:34:28;;;;;;;3.67;1.10;;;;;;;-4.40;56.55;101519.16;5007259;28;20112;-73
2022/12/23 04:36:56;;;;;;;1.25;0.98;;;;;;;-4.43;57.17;101514.69;5007079;28;20412;-73
2022/12/23 04:39:26;;;;;;;1.92;0.60;;;;;;;-4.45;57.63;101511.13;5004572;28;20084;-73
2022/12/23 04:41:55;;;;;;;2.55;0.70;;;;;;;-4.48;58.47;101510.81;5004695;28;20058;-71
2022/12/23 04:44:24;;;;;;;0.52;0.43;;;;;;;-4.51;58.06;101500.41;5008379;28;20041;-73
2022/12/23 04:46:52;;;;;;;1.35;0.65;;;;;;;-4.50;58.61;101507.25;5001533;28;20137;-72
2022/12/23 04:49:21;;;;;;;2.67;1.20;;;;;;;-4.50;59.92;101514.81;5009458;28;20617;-74
2022/12/23 04:51:50;;;;;;;1.13;0.63;;;;;;;-4.52;60.07;101513.75;5006535;28;20455;-74
2022/12/23 04:54:18;;;;;;;2.67;0.93;;;;;;;-4.51;60.81;101504.53;5002276;28;20054;-72
2022/12/23 04:56:48;;;;;;;1.98;0.70;;;;;;;-4.54;60.20;101500.09;5007069;28;20045;-72
2022/12/23 04:59:17;;;;;;;0.63;0.50;;;;;;;-4.53;59.96;101503.53;5003268;28;20538;-74
2022/12/23 05:01:46;;;;;;;2.05;0.30;;;;;;;-4.55;60.20;101508.41;5009640;28;20065;-72
2022/12/23 05:04:15;;;;;;;4.70;0.75;;;;;;;-4.58;60.17;101507.19;5016128;28;20499;-73
2022/12/23 05:06:44;;;;;;;1.30;0.90;;;;;;;-4.58;61.32;101513.16;5022053;28;20111;-72
2022/12/23 05:09:12;;;;;;;3.72;1.27;;;;;;;-4.55;61.59;101518.50;5025017;28;20053;-72
2022/12/23 05:11:41;;;;;;;2.63;0.82;;;;;;;-4.59;61.85;101515.53;5028248;28;20045;-71
2022/12/23 05:14:13;;;;;;;1.05;0.68;;;;;;;-4.61;62.58;101510.31;5028015;28;20529;-72
2022/12/23 05:16:41;;;;;;;1.13;0.57;;;;;;;-4.60;62.92;101512.13;5026480;28;20061;-71
2022/12/23 05:19:11;;;;;;;2.72;0.95;;;;;;;-4.59;63.24;101500.38;5027217;28;20049;-72
2022/12/23 05:21:40;;;;;;;1.48;0.82;;;;;;;-4.61;63.50;101487.56;5020857;28;20046;-72
2022/12/23 05:24:09;;;;;;;0.70;0.40;;;;;;;-4.60;63.80;101486.84;5024561;28;20136;-71
2022/12/23 05:26:38;;;;;;;1.33;0.80;;;;;;;-4.65;64.02;101480.44;5022491;28;20064;-75
2022/12/23 05:29:07;;;;;;;0.68;0.50;;;;;;;-4.71;68.84;101475.66;5028979;28;20046;-73
2022/12/23 05:31:37;;;;;;;1.17;0.70;;;;;;;-4.70;65.09;101481.59;5024687;28;20053;-70
2022/12/23 05:34:06;;;;;;;0.60;0.50;;;;;;;-4.83;65.50;101484.53;5027335;28;20056;-72
2022/12/23 05:36:35;;;;;;;3.08;0.80;;;;;;;-4.90;66.56;101483.00;5023517;28;20053;-70
2022/12/23 05:39:03;;;;;;;2.47;0.65;;;;;;;-4.90;66.13;101472.91;5021393;28;20068;-72
2022/12/23 05:41:32;;;;;;;1.40;0.80;;;;;;;-4.85;66.80;101476.78;5022883;28;20044;-72
2022/12/23 05:44:01;;;;;;;1.95;0.77;;;;;;;-4.85;66.04;101473.38;5024193;28;20056;-74
2022/12/23 05:46:30;;;;;;;1.13;0.55;;;;;;;-4.85;65.81;101496.97;5028600;28;20170;-73
2022/12/23 05:49:00;;;;;;;0.93;0.32;;;;;;;-4.82;65.34;101505.59;5025022;28;20053;-73
2022/12/23 05:51:29;;;;;;;6.45;0.88;;;;;;;-4.86;67.93;101495.16;5021294;28;20049;-72
2022/12/23 05:53:58;;;;;;;1.10;0.95;;;;;;;-4.90;67.40;101490.56;5029190;28;20132;-71
2022/12/23 05:56:27;;;;;;;1.33;0.57;;;;;;;-4.88;67.72;101475.56;5021289;28;20605;-73
2022/12/23 05:58:56;;;;;;;2.03;1.02;;;;;;;-4.92;67.14;101478.53;5024216;28;20358;-74
2022/12/23 06:01:24;;;;;;;1.92;0.75;;;;;;;-4.90;67.30;101477.94;5026131;28;20137;-73
2022/12/23 06:03:53;;;;;;;2.63;0.77;;;;;;;-4.91;66.69;101486.25;5025997;28;20053;-72
2022/12/23 06:06:24;;;;;;;0.73;0.40;;;;;;;-4.92;66.89;101478.53;5026659;28;20103;-75
2022/12/23 06:08:53;;;;;;;0.65;0.60;;;;;;;-4.93;67.33;101477.63;5022207;28;20053;-73
2022/12/23 06:11:22;;;;;;;3.80;0.77;;;;;;;-4.93;67.36;101477.63;5018520;28;20046;-75
2022/12/23 06:13:51;;;;;;;0.65;0.30;;;;;;;-4.91;67.58;101481.19;5026686;28;20053;-76
2022/12/23 06:16:20;;;;;;;3.65;1.23;;;;;;;-4.90;67.67;101477.94;5028787;28;20057;-73
2022/12/23 06:18:49;;;;;;;1.77;0.60;;;;;;;-4.87;67.46;101480.78;5018671;28;20139;-74
2022/12/23 06:21:18;;;;;;;2.08;0.95;;;;;;;-4.85;66.28;101481.84;5026514;28;20071;-73
2022/12/23 06:23:48;;;;;;;2.45;0.70;;;;;;;-4.86;66.80;101480.03;5023360;28;20072;-78
2022/12/23 06:26:17;;;;;;;2.55;0.57;;;;;;;-4.84;67.17;101481.06;5025450;28;20049;-73
2022/12/23 06:28:46;;;;;;;2.78;0.90;;;;;;;-4.81;66.37;101493.16;5022201;28;20490;-79
2022/12/23 06:31:15;;;;;;;2.03;1.10;;;;;;;-4.80;67.61;101486.47;5022924;28;20076;-76
2022/12/23 06:33:44;;;;;;;1.65;0.93;;;;;;;-4.81;66.24;101498.19;5021117;28;20053;-77
2022/12/23 06:36:13;;;;;;;2.75;1.20;;;;;;;-4.79;66.09;101489.13;5021154;28;20415;-75
2022/12/23 06:38:41;;;;;;;2.92;1.38;;;;;;;-4.79;67.00;101489.13;5021415;28;20045;-75
2022/12/23 06:41:13;;;;;;;0.95;0.75;;;;;;;-4.82;66.48;101481.25;5018680;28;20049;-74
2022/12/23 06:43:42;;;;;;;2.08;0.80;;;;;;;-4.88;66.24;101476.47;5020969;28;20054;-72
2022/12/23 06:46:10;;;;;;;1.08;0.95;;;;;;;-4.89;66.31;101492.34;5021610;28;20061;-74
2022/12/23 06:48:39;;;;;;;2.78;0.40;;;;;;;-4.92;67.56;101494.56;5016857;28;20805;-75
2022/12/23 06:51:09;;;;;;;2.45;1.10;;;;;;;-4.91;67.97;101480.31;5018958;28;20566;-74
2022/12/23 06:53:38;;;;;;;8.35;1.40;;;;;;;-4.89;67.67;101464.56;5024694;28;20049;-77
2022/12/23 06:56:07;;;;;;;1.67;0.70;;;;;;;-4.88;67.15;101468.91;5023432;28;20454;-76
2022/12/23 06:58:38;;;;;;;2.72;1.08;;;;;;;-4.88;68.42;101461.34;5018448;28;20072;-75
2022/12/23 07:01:07;;;;;;;2.92;0.75;;;;;;;-4.91;68.31;101440.81;5020244;28;20049;-76
2022/12/23 07:03:36;;;;;;;4.00;0.90;;;;;;;-4.91;68.28;101433.25;5021989;28;20061;-77
2022/12/23 07:06:05;;;;;;;1.70;0.52;;;;;;;-4.92;68.72;101434.00;5025576;28;20049;-78
2022/12/23 07:08:33;;;;;;;4.82;0.98;;;;;;;-4.91;68.12;101439.94;5022727;28;20049;-79
2022/12/23 07:11:03;;;;;;;1.67;0.70;;;;;;;-4.90;68.45;101440.09;5022155;28;20060;-76
2022/12/23 07:13:33;;;;;;;2.85;0.90;;;;;;;-4.92;69.63;101449.13;5018139;28;20052;-76
2022/12/23 07:16:07;;;;;;;1.35;0.47;;;;;;;-4.96;70.47;101441.97;5026726;28;20585;-79
2022/12/23 07:18:36;;;;;;;0.68;0.50;;;;;;;-5.05;70.12;101441.03;5021829;28;20624;-78
2022/12/23 07:21:05;;;;;;;1.00;0.57;;;;;;;-5.03;70.86;101443.72;5020231;28;20495;-78
2022/12/23 07:23:34;;;;;;;1.73;0.57;;;;;;;-5.00;70.99;101429.78;5018504;28;20045;-77
2022/12/23 07:26:02;;;;;;;0.85;0.50;;;;;;;-4.96;70.99;101434.41;5021541;28;20053;-79
2022/12/23 07:28:31;;;;;;;0.68;0.40;;;;;;;-4.95;71.30;101426.09;5020516;28;20487;-77
2022/12/23 07:30:59;;;;;;;0.63;0.45;;;;;;;-4.96;69.82;101431.00;5022288;28;20279;-75
2022/12/23 07:33:30;;;;;;;2.67;0.60;;;;;;;-5.00;71.23;101424.72;5022896;28;20049;-78
2022/12/23 07:35:59;;;;;;;0.80;0.50;;;;;;;-5.00;70.72;101424.72;5022012;28;20056;-80
2022/12/23 07:38:28;;;;;;;4.28;1.02;;;;;;;-5.00;71.06;101429.78;5023163;28;20424;-74
2022/12/23 07:40:57;;;;;;;1.23;0.68;;;;;;;-4.95;70.10;101432.78;5023796;28;20462;-78
2022/12/23 07:43:25;;;;;;;2.50;0.90;;;;;;;-4.93;70.85;101406.94;5023167;28;20638;-76
2022/12/23 07:45:54;;;;;;;1.40;0.60;;;;;;;-4.91;71.16;101410.53;5021852;28;20049;-79
2022/12/23 07:48:22;;;;;;;2.40;1.00;;;;;;;-4.90;70.53;101417.38;5025650;28;20122;-77
2022/12/23 07:50:53;;;;;;;2.38;0.90;;;;;;;-4.91;69.62;101402.94;5017542;28;20069;-76
2022/12/23 07:53:21;;;;;;;4.28;1.25;;;;;;;-4.91;70.65;101400.44;5024611;28;20050;-81
2022/12/23 07:55:53;;;;;;;1.50;0.70;;;;;;;-4.96;69.97;101395.66;5021096;28;20648;-78
2022/12/23 07:58:21;;;;;;;1.20;0.70;;;;;;;-4.99;70.06;101391.19;5020352;28;20061;-78
2022/12/23 08:00:50;;;;;;;1.40;0.63;;;;;;;-4.98;70.08;101380.34;5019502;28;20049;-76
2022/12/23 08:03:18;;;;;;;0.98;0.63;;;;;;;-4.95;71.07;101379.78;5010047;28;20067;-77
2022/12/23 08:05:47;;;;;;;1.73;1.05;;;;;;;-4.92;70.30;101385.16;5009749;28;20053;-79
2022/12/23 08:08:17;;;;;;;1.65;0.45;;;;;;;-4.93;69.79;101389.28;5004998;28;20700;-76
2022/12/23 08:10:46;;;;;;;0.80;0.50;;;;;;;-4.90;69.81;101383.63;5019607;28;20129;-79
2022/12/23 08:13:14;;;;;;;1.55;0.85;;;;;;;-4.89;69.44;101385.44;5007723;28;20041;-76
2022/12/23 08:15:43;;;;;;;6.50;0.63;;;;;;;-4.87;69.41;101384.84;5013991;28;20049;-76
2022/12/23 08:18:12;;;;;;;2.42;1.00;;;;;;;-4.86;69.72;101376.53;5005742;28;20508;-80
2022/12/23 08:20:40;;;;;;;0.82;0.73;;;;;;;-4.83;69.84;101368.41;5003092;28;20458;-78
2022/12/23 08:23:16;;;;;;;0.25;0.25;;;;;;;-4.82;70.23;101366.75;5007541;28;20053;-80
2022/12/23 08:25:46;;;;;;;2.58;0.77;;;;;;;-4.85;69.46;101359.78;5005339;28;20046;-77
2022/12/23 08:28:15;;;;;;;3.63;1.20;;;;;;;-4.86;69.48;101345.34;5006779;28;20057;-79
2022/12/23 08:30:44;;;;;;;1.33;1.02;;;;;;;-4.87;69.39;101336.91;5005235;28;20401;-76
2022/12/23 08:33:13;;;;;;;0.70;0.28;;;;;;;-4.88;69.91;101327.56;5012185;28;20057;-77
2022/12/23 08:35:42;;;;;;;3.25;0.50;;;;;;;-4.87;70.71;101336.00;5006963;28;20435;-81
2022/12/23 08:38:10;;;;;;;2.80;1.08;;;;;;;-4.89;71.43;101340.91;5004517;28;20648;-77
2022/12/23 08:40:41;;;;;;;2.80;1.48;;;;;;;-4.88;71.87;101354.41;5005162;28;20061;-83
2022/12/23 08:43:11;;;;;;;7.65;1.17;;;;;;;-4.86;71.25;101350.41;5004732;28;20510;-78
2022/12/23 08:45:40;;;;;;;2.72;1.23;;;;;;;-4.84;71.54;101366.59;5016551;28;20037;-75
2022/12/23 08:48:18;;;;;;;2.78;1.13;;;;;;;-4.88;71.19;101370.47;5005444;28;20057;-75
2022/12/23 08:50:48;;;;;;;12.90;1.20;;;;;;;-4.86;70.83;101368.97;5008374;28;20054;-79
2022/12/23 08:53:16;;;;;;;1.88;1.30;;;;;;;-4.87;72.02;101366.31;5002463;28;20058;-80
2022/12/23 08:55:47;;;;;;;4.28;0.90;;;;;;;-4.86;72.37;101363.91;5008121;28;20050;-77
2022/12/23 08:58:17;;;;;;;2.67;1.15;;;;;;;-4.84;73.75;101347.28;5010707;28;20053;-80
2022/12/23 09:00:46;;;;;;;4.95;0.60;;;;;;;-4.81;72.70;101338.25;5011369;28;20700;-81
2022/12/23 09:03:20;;;;;;;2.17;0.88;;;;;;;-4.78;74.25;101341.09;5011476;28;20050;-77
2022/12/23 09:05:49;;;;;;;2.42;0.68;;;;;;;-4.76;74.32;101332.03;5016265;28;20038;-79
2022/12/23 09:08:18;;;;;;;2.22;0.80;;;;;;;-4.74;76.13;101312.84;5023649;28;20050;-77
2022/12/23 09:10:46;;;;;;;1.27;0.95;;;;;;;-4.73;75.18;101310.50;5022408;28;20056;-82
2022/12/23 09:13:16;;;;;;;0.47;0.40;;;;;;;-4.72;75.35;101306.34;5019610;28;20531;-77
2022/12/23 09:15:46;;;;;;;1.45;0.73;;;;;;;-4.73;76.47;101304.56;5024610;28;20061;-76
2022/12/23 09:18:14;;;;;;;1.25;0.80;;;;;;;-4.76;76.92;101305.16;5028371;28;20045;-76
2022/12/23 09:20:43;;;;;;;0.68;0.50;;;;;;;-4.77;77.37;101312.56;5029817;28;20605;-78
2022/12/23 09:23:11;;;;;;;1.40;0.38;;;;;;;-4.78;77.39;101323.41;5024487;28;20041;-82
2022/12/23 09:25:40;;;;;;;4.93;0.68;;;;;;;-4.78;78.08;101321.78;5030076;28;20054;-77
2022/12/23 09:28:09;;;;;;;2.30;1.27;;;;;;;-4.77;78.63;101327.72;5032289;28;20071;-81
2022/12/23 09:30:40;;;;;;;1.70;1.02;;;;;;;-4.73;78.89;101345.84;5031300;28;20493;-81
2022/12/23 09:33:08;;;;;;;2.03;0.88;;;;;;;-4.71;77.77;101338.44;5024288;28;20045;-79
2022/12/23 09:35:37;;;;;;;2.00;0.70;;;;;;;-4.70;78.46;101320.00;5035029;28;20052;-80
2022/12/23 09:38:05;;;;;;;1.30;0.75;;;;;;;-4.72;78.50;101296.22;5025121;28;20099;-77
2022/12/23 09:40:36;;;;;;;0.40;0.35;;;;;;;-4.76;80.43;101269.81;5024260;28;20447;-76
2022/12/23 09:43:14;;;;;;;0.70;0.68;;;;;;;-4.77;80.33;101249.47;5029551;28;20053;-76
2022/12/23 09:45:59;;;;;;;1.75;1.05;;;;;;;-4.77;80.27;101231.78;5024547;28;20062;-78
2022/12/23 09:48:32;;;;;;;2.47;1.17;;;;;;;-4.78;80.35;101235.94;5028613;28;20072;-80
2022/12/23 09:51:02;;;;;;;1.55;0.80;;;;;;;-4.75;80.10;101245.44;5028167;28;20056;-79
2022/12/23 09:53:43;;;;;;;2.85;1.15;;;;;;;-4.84;81.92;101251.38;5028089;28;20076;-81
2022/12/23 09:56:20;;;;;;;1.55;0.85;;;;;;;-4.86;81.75;101270.50;5024178;28;20054;-79
2022/12/23 09:58:54;;;;;;;1.23;0.30;;;;;;;-4.85;81.55;101284.94;5023475;28;20146;-75
2022/12/23 10:01:33;;;;;;;1.88;0.73;;;;;;;-4.82;81.92;101293.56;5018869;28;20045;-77
2022/12/23 10:04:37;;;;;;;3.80;1.27;;;;;;;-4.80;81.91;101292.09;5027051;28;20560;-75
2022/12/23 10:07:20;;;;;;;1.77;0.70;;;;;;;-4.79;82.19;101286.28;5028271;28;20507;-77
2022/12/23 10:09:53;;;;;;;4.32;0.93;;;;;;;-4.78;82.52;101290.59;5021737;28;20033;-78
2022/12/23 10:12:31;;;;;;;5.00;0.63;;;;;;;-4.77;82.87;101298.31;5021703;28;20049;-75
2022/12/23 10:15:02;;;;;;;3.10;0.70;;;;;;;-4.77;83.05;101287.31;5025776;28;20046;-75
2022/12/23 10:17:38;;;;;;;0.68;0.60;;;;;;;-4.74;82.08;101282.56;5025676;28;20070;-77
2022/12/23 10:20:17;;;;;;;0.82;0.60;;;;;;;-4.71;82.89;101298.91;5027796;28;20087;-78
2022/12/23 10:22:47;;;;;;;1.00;0.80;;;;;;;-4.75;82.40;101298.47;5027682;28;20045;-76
2022/12/23 10:25:22;;;;;;;3.22;0.98;;;;;;;-4.74;82.67;101302.75;5027030;28;20193;-76
2022/12/23 10:27:51;;;;;;;4.95;1.05;;;;;;;-4.79;83.14;101282.13;5027590;28;20615;-75
2022/12/23 10:30:21;;;;;;;3.22;1.05;;;;;;;-4.66;82.83;101284.22;5023303;28;20713;-72
2022/12/23 10:33:03;;;;;;;1.52;1.02;;;;;;;-4.64;82.76;101282.75;5021970;28;20073;-74
2022/12/23 10:35:45;;;;;;;2.13;1.40;;;;;;;-4.64;82.68;101290.31;5025945;28;20602;-75
2022/12/23 10:38:38;;;;;;;2.42;1.20;;;;;;;-4.67;82.15;101290.91;5023055;28;20963;-74
2022/12/23 10:41:16;;;;;;;1.27;1.17;;;;;;;-4.65;81.63;101296.09;5012266;28;20562;-73
2022/12/23 10:44:00;;;;;;;1.90;0.50;;;;;;;-4.65;82.18;101276.81;5021117;28;20045;-71
2022/12/23 10:46:37;;;;;;;1.60;0.82;;;;;;;-4.69;81.59;101281.41;5022792;28;20597;-73
2022/12/23 10:49:17;;;;;;;1.95;0.98;;;;;;;-4.68;81.76;101270.56;5026523;28;20050;-73
2022/12/23 10:51:50;;;;;;;1.58;0.82;;;;;;;-4.70;82.15;101287.19;5026362;28;20048;-74
2022/12/23 10:54:24;;;;;;;2.45;1.08;;;;;;;-4.68;82.30;101289.09;5024701;28;20049;-74
2022/12/23 10:56:53;;;;;;;2.20;1.20;;;;;;;-4.69;84.07;101297.44;5025994;28;20095;-73
2022/12/23 10:59:26;;;;;;;2.15;1.15;;;;;;;-4.68;84.29;101299.22;5026801;28;20060;-73
2022/12/23 11:02:02;;;;;;;2.13;0.98;;;;;;;-4.66;83.68;101302.78;5024346;28;20052;-74
2022/12/23 11:04:36;;;;;;;2.72;0.90;;;;;;;-4.67;84.14;101285.88;5026500;28;20702;-73
2022/12/23 11:07:05;;;;;;;3.42;1.02;;;;;;;-4.64;84.88;101292.84;5025494;28;20055;-75
2022/12/23 11:09:40;;;;;;;2.83;1.38;;;;;;;-4.63;84.47;101274.41;5022525;28;20042;-73
2022/12/23 11:12:11;;;;;;;1.88;0.85;;;;;;;-4.66;84.65;101275.00;5018608;28;20050;-73
2022/12/23 11:14:42;;;;;;;1.60;0.95;;;;;;;-4.65;84.96;101274.28;5023715;28;20049;-74
2022/12/23 11:17:22;;;;;;;2.28;1.10;;;;;;;-4.62;85.91;101273.69;5023321;28;20620;-73
2022/12/23 11:20:12;;;;;;;3.70;1.00;;;;;;;-4.63;86.21;101282.00;5019546;28;20060;-74
2022/12/23 11:22:50;;;;;;;1.52;0.60;;;;;;;-4.70;86.70;101284.66;5024882;28;20533;-72
2022/12/23 11:25:29;;;;;;;2.85;1.40;;;;;;;-4.72;87.21;101279.47;5025086;28;20603;-73
2022/12/23 11:28:01;;;;;;;4.60;1.42;;;;;;;-4.69;86.97;101276.34;5031316;28;20046;-74
2022/12/23 11:30:32;;;;;;;3.17;1.00;;;;;;;-4.65;86.54;101289.44;5030971;28;20419;-75
2022/12/23 11:33:01;;;;;;;2.53;0.98;;;;;;;-4.66;87.02;101261.50;5027370;28;20065;-72
2022/12/23 11:35:33;;;;;;;1.92;1.10;;;;;;;-4.68;88.61;101252.88;5026428;28;20049;-75
2022/12/23 11:38:14;;;;;;;1.57;0.73;;;;;;;-4.68;87.84;101270.56;5021190;28;20056;-73
2022/12/23 11:40:52;;;;;;;1.17;0.77;;;;;;;-4.66;87.86;101277.53;5022168;28;20281;-72
2022/12/23 11:43:23;;;;;;;1.38;0.65;;;;;;;-4.65;88.35;101273.38;5018771;28;20038;-71
2022/12/23 11:46:15;;;;;;;1.15;0.77;;;;;;;-4.65;88.78;101263.28;5023194;28;20438;-74
2022/12/23 11:48:44;;;;;;;2.70;1.17;;;;;;;-4.62;89.03;101266.13;5027018;28;20041;-73
2022/12/23 11:51:14;;;;;;;2.45;1.20;;;;;;;-4.62;87.90;101253.50;5022430;28;20411;-74
2022/12/23 11:53:44;;;;;;;3.65;0.75;;;;;;;-4.59;88.49;101268.94;5022328;28;20076;-72
2022/12/23 11:56:15;;;;;;;1.90;0.95;;;;;;;-4.56;88.93;101264.16;5022780;28;20046;-74
2022/12/23 11:58:51;;;;;;;1.45;0.88;;;;;;;-4.55;87.87;101253.34;5024924;28;20060;-73
2022/12/23 12:01:22;;;;;;;2.83;1.10;;;;;;;-4.56;87.80;101255.69;5023702;28;20049;-71
2022/12/23 12:03:54;;;;;;;2.28;1.13;;;;;;;-4.57;87.48;101252.28;5018651;28;20195;-75
2022/12/23 12:06:26;;;;;;;2.05;0.80;;;;;;;-4.56;87.92;101256.59;5019689;28;20053;-74
2022/12/23 12:08:59;;;;;;;1.70;0.80;;;;;;;-4.55;88.25;101258.38;5021707;28;20054;-71
2022/12/23 12:11:30;;;;;;;3.35;0.90;;;;;;;-4.55;89.26;101263.44;5023162;28;20072;-73
2022/12/23 12:14:01;;;;;;;1.70;1.20;;;;;;;-4.53;88.33;101263.59;5024042;28;20061;-72
2022/12/23 12:16:50;;;;;;;0.88;0.77;;;;;;;-4.54;88.37;101275.31;5024233;28;20058;-74